createdAt,value
2022-12-18T00:00:58.150Z,71.71
2022-12-18T00:03:29.557Z,71.45
2022-12-18T00:06:00.120Z,71.54
2022-12-18T00:08:31.185Z,71.70
2022-12-18T00:11:08.062Z,71.79
2022-12-18T00:13:38.991Z,71.85
2022-12-18T00:16:15.355Z,71.75
2022-12-18T00:18:46.633Z,71.92
2022-12-18T00:21:18.080Z,71.90
2022-12-18T00:23:50.020Z,72.15
2022-12-18T00:26:23.542Z,71.80
2022-12-18T00:28:57.996Z,71.84
2022-12-18T00:31:31.613Z,71.64
2022-12-18T00:34:02.955Z,71.79
2022-12-18T00:36:36.535Z,71.49
2022-12-18T00:39:09.251Z,71.52
2022-12-18T00:41:52.137Z,71.66
2022-12-18T00:44:23.499Z,71.64
2022-12-18T00:46:57.788Z,72.02
2022-12-18T00:49:28.707Z,71.87
2022-12-18T00:51:59.783Z,72.17
2022-12-18T00:54:30.476Z,72.00
2022-12-18T00:57:01.165Z,72.19
2022-12-18T00:59:31.681Z,71.91
2022-12-18T01:02:05.063Z,71.90
2022-12-18T01:04:35.829Z,71.93
2022-12-18T01:07:06.371Z,72.48
2022-12-18T01:09:38.774Z,72.32
2022-12-18T01:12:10.560Z,72.24
2022-12-18T01:14:41.943Z,72.37
2022-12-18T01:17:18.310Z,72.70
2022-12-18T01:19:49.486Z,72.58
2022-12-18T01:22:20.141Z,72.49
2022-12-18T01:24:50.587Z,72.85
2022-12-18T01:27:21.263Z,72.72
2022-12-18T01:29:51.744Z,73.08
2022-12-18T01:32:26.397Z,73.25
2022-12-18T01:34:56.869Z,73.35
2022-12-18T01:37:27.584Z,73.46
2022-12-18T01:39:58.326Z,73.57
2022-12-18T01:42:29.555Z,73.64
2022-12-18T01:45:03.871Z,73.59
2022-12-18T01:47:46.373Z,73.79
2022-12-18T01:50:20.560Z,73.72
2022-12-18T01:52:54.290Z,73.61
2022-12-18T01:55:28.039Z,73.46
2022-12-18T01:58:02.566Z,73.36
2022-12-18T02:00:33.522Z,73.25
2022-12-18T02:03:06.921Z,73.24
2022-12-18T02:05:47.908Z,73.22
2022-12-18T02:08:25.257Z,73.26
2022-12-18T02:11:01.007Z,73.33
2022-12-18T02:13:40.598Z,73.42
2022-12-18T02:16:38.686Z,73.23
2022-12-18T02:19:24.626Z,73.25
2022-12-18T02:22:11.024Z,73.05
2022-12-18T02:24:49.313Z,73.23
2022-12-18T02:27:23.197Z,72.87
2022-12-18T02:29:58.788Z,73.12
2022-12-18T02:32:38.079Z,73.34
2022-12-18T02:35:11.562Z,73.20
2022-12-18T02:37:46.599Z,73.30
2022-12-18T02:40:19.725Z,73.21
2022-12-18T02:42:53.089Z,73.31
2022-12-18T02:45:24.580Z,73.26
2022-12-18T02:47:56.858Z,73.28
2022-12-18T02:50:35.058Z,73.51
2022-12-18T02:53:17.643Z,73.53
2022-12-18T02:56:01.616Z,73.61
2022-12-18T02:58:41.917Z,73.74
2022-12-18T03:01:28.833Z,73.92
2022-12-18T03:04:02.751Z,73.84
2022-12-18T03:06:36.226Z,74.09
2022-12-18T03:09:11.898Z,74.03
2022-12-18T03:12:01.098Z,74.08
2022-12-18T03:14:36.953Z,74.00
2022-12-18T03:17:10.086Z,74.23
2022-12-18T03:19:42.892Z,74.35
2022-12-18T03:22:15.065Z,73.97
2022-12-18T03:24:50.447Z,74.30
2022-12-18T03:27:25.390Z,74.40
2022-12-18T03:30:08.638Z,74.52
2022-12-18T03:32:46.936Z,74.28
2022-12-18T03:35:22.600Z,74.47
2022-12-18T03:37:53.661Z,74.57
2022-12-18T03:40:31.565Z,74.53
2022-12-18T03:43:07.511Z,74.48
2022-12-18T03:45:46.064Z,74.62
2022-12-18T03:48:23.864Z,74.21
2022-12-18T03:51:00.254Z,74.25
2022-12-18T03:53:41.423Z,74.36
2022-12-18T03:56:14.173Z,74.35
2022-12-18T03:58:48.981Z,74.27
2022-12-18T04:01:30.659Z,74.40
2022-12-18T04:04:04.359Z,74.31
2022-12-18T04:06:39.355Z,74.33
2022-12-18T04:09:10.123Z,74.54
2022-12-18T04:11:44.977Z,74.53
2022-12-18T04:14:18.451Z,74.69
2022-12-18T04:16:55.523Z,74.56
2022-12-18T04:19:33.322Z,74.73
2022-12-18T04:22:05.673Z,74.75
2022-12-18T04:24:43.693Z,74.86
2022-12-18T04:27:21.636Z,75.30
2022-12-18T04:29:54.441Z,75.21
2022-12-18T04:32:27.734Z,75.61
2022-12-18T04:34:58.177Z,75.93
2022-12-18T04:37:29.124Z,76.08
2022-12-18T04:39:59.979Z,76.14
2022-12-18T04:42:38.098Z,76.84
2022-12-18T04:45:09.801Z,76.96
2022-12-18T04:47:42.898Z,77.79
2022-12-18T04:50:13.921Z,77.46
2022-12-18T04:52:44.337Z,77.57
2022-12-18T04:55:17.561Z,77.80
2022-12-18T04:57:48.056Z,77.41
2022-12-18T05:00:19.448Z,77.70
2022-12-18T05:02:52.903Z,78.35
2022-12-18T05:05:23.679Z,78.34
2022-12-18T05:07:54.233Z,78.56
2022-12-18T05:10:24.886Z,78.60
2022-12-18T05:13:04.032Z,78.72
2022-12-18T05:15:36.264Z,78.97
2022-12-18T05:18:09.496Z,78.99
2022-12-18T05:20:40.127Z,79.00
2022-12-18T05:23:10.588Z,79.15
2022-12-18T05:25:41.608Z,78.96
2022-12-18T05:28:12.177Z,79.29
2022-12-18T05:30:42.759Z,79.15
2022-12-18T05:33:15.936Z,79.19
2022-12-18T05:35:46.585Z,78.84
2022-12-18T05:38:16.986Z,78.93
2022-12-18T05:40:47.806Z,78.92
2022-12-18T05:43:21.445Z,78.35
2022-12-18T05:45:52.944Z,78.25
2022-12-18T05:48:26.218Z,78.28
2022-12-18T05:50:56.911Z,78.21
2022-12-18T05:53:27.299Z,78.35
2022-12-18T05:55:57.998Z,78.23
2022-12-18T05:58:28.529Z,77.91
2022-12-18T06:00:59.300Z,77.97
2022-12-18T06:03:34.162Z,77.80
2022-12-18T06:06:04.899Z,77.35
2022-12-18T06:08:35.413Z,77.40
2022-12-18T06:11:06.077Z,77.29
2022-12-18T06:13:36.696Z,77.25
2022-12-18T06:16:08.382Z,76.98
2022-12-18T06:18:41.561Z,76.81
2022-12-18T06:21:12.188Z,76.65
2022-12-18T06:23:43.284Z,76.50
2022-12-18T06:26:16.284Z,76.56
2022-12-18T06:28:46.858Z,76.48
2022-12-18T06:31:17.531Z,76.43
2022-12-18T06:33:51.859Z,76.32
2022-12-18T06:36:22.581Z,76.11
2022-12-18T06:38:53.237Z,75.90
2022-12-18T06:41:25.311Z,75.62
2022-12-18T06:43:59.738Z,75.77
2022-12-18T06:46:30.708Z,75.83
2022-12-18T06:49:03.789Z,75.42
2022-12-18T06:51:34.628Z,75.59
2022-12-18T06:54:05.300Z,75.48
2022-12-18T06:56:35.879Z,75.25
2022-12-18T06:59:07.121Z,75.53
2022-12-18T07:01:37.831Z,75.40
2022-12-18T07:04:11.948Z,75.34
2022-12-18T07:06:42.525Z,75.31
2022-12-18T07:09:12.964Z,75.04
2022-12-18T07:11:43.519Z,74.95
2022-12-18T07:14:14.435Z,75.12
2022-12-18T07:16:45.110Z,74.68
2022-12-18T07:19:18.285Z,74.78
2022-12-18T07:21:48.906Z,74.77
2022-12-18T07:24:19.598Z,74.92
2022-12-18T07:26:52.276Z,74.71
2022-12-18T07:29:22.764Z,74.65
2022-12-18T07:31:53.377Z,74.98
2022-12-18T07:34:26.504Z,74.77
2022-12-18T07:36:57.054Z,74.79
2022-12-18T07:39:27.524Z,74.99
2022-12-18T07:42:10.294Z,74.72
2022-12-18T07:44:44.332Z,74.38
2022-12-18T07:47:14.929Z,73.87
2022-12-18T07:49:48.136Z,73.67
2022-12-18T07:52:24.227Z,73.57
2022-12-18T07:54:56.915Z,73.34
2022-12-18T07:57:49.546Z,73.79
2022-12-18T08:00:19.364Z,73.56
2022-12-18T08:02:50.360Z,73.41
2022-12-18T08:05:24.129Z,72.79
2022-12-18T08:07:54.686Z,72.66
2022-12-18T08:10:25.439Z,72.51
2022-12-18T08:13:01.408Z,72.25
2022-12-18T08:15:35.065Z,72.09
2022-12-18T08:18:09.028Z,72.12
2022-12-18T08:20:47.385Z,72.04
2022-12-18T08:23:17.983Z,71.65
2022-12-18T08:25:48.560Z,70.75
2022-12-18T08:28:19.237Z,71.28
2022-12-18T08:30:49.782Z,71.45
2022-12-18T08:33:20.526Z,71.33
2022-12-18T08:35:53.670Z,71.29
2022-12-18T08:38:24.481Z,71.27
2022-12-18T08:41:02.439Z,71.03
2022-12-18T08:43:45.619Z,70.90
2022-12-18T08:46:16.556Z,70.88
2022-12-18T08:48:47.671Z,70.45
2022-12-18T08:51:21.163Z,70.33
2022-12-18T08:53:52.007Z,69.80
2022-12-18T08:56:22.524Z,69.23
2022-12-18T08:58:56.177Z,69.00
2022-12-18T09:01:27.406Z,68.82
2022-12-18T09:03:58.107Z,68.06
2022-12-18T09:06:31.222Z,67.44
2022-12-18T09:09:01.845Z,67.27
2022-12-18T09:11:34.035Z,67.18
2022-12-18T09:14:05.696Z,66.95
2022-12-18T09:16:37.980Z,66.86
2022-12-18T09:19:09.316Z,66.69
2022-12-18T09:21:47.729Z,66.71
2022-12-18T09:24:19.574Z,66.57
2022-12-18T09:26:54.804Z,65.67
2022-12-18T09:29:28.560Z,65.79
2022-12-18T09:31:59.050Z,65.38
2022-12-18T09:34:29.783Z,65.27
2022-12-18T09:37:03.367Z,64.80
2022-12-18T09:39:34.013Z,64.03
2022-12-18T09:42:04.775Z,64.42
2022-12-18T09:44:45.074Z,64.53
2022-12-18T09:47:21.275Z,64.74
2022-12-18T09:49:56.864Z,64.98
2022-12-18T09:52:31.718Z,63.11
2022-12-18T09:55:06.177Z,63.87
2022-12-18T09:57:41.062Z,64.23
2022-12-18T10:00:21.555Z,63.90
2022-12-18T10:02:52.922Z,63.76
2022-12-18T10:05:33.286Z,63.88
2022-12-18T10:08:12.660Z,62.93
2022-12-18T10:10:50.905Z,63.02
2022-12-18T10:13:29.521Z,61.55
2022-12-18T10:16:13.664Z,61.71
2022-12-18T10:19:02.607Z,60.59
2022-12-18T10:21:38.154Z,60.54
2022-12-18T10:24:15.500Z,59.29
2022-12-18T10:26:46.146Z,59.77
2022-12-18T10:29:18.833Z,60.02
2022-12-18T10:31:49.599Z,59.65
2022-12-18T10:34:20.091Z,59.41
2022-12-18T10:36:52.077Z,57.91
2022-12-18T10:39:27.514Z,57.97
2022-12-18T10:42:14.753Z,55.86
2022-12-18T10:44:45.310Z,57.12
2022-12-18T10:47:18.820Z,56.54
2022-12-18T10:49:53.932Z,57.03
2022-12-18T10:52:26.974Z,56.40
2022-12-18T10:55:02.957Z,56.27
2022-12-18T10:57:39.908Z,56.11
2022-12-18T11:00:28.949Z,56.30
2022-12-18T11:03:00.693Z,56.26
2022-12-18T11:05:34.249Z,55.52
2022-12-18T11:08:05.657Z,54.85
2022-12-18T11:10:42.112Z,54.94
2022-12-18T11:13:20.950Z,55.05
2022-12-18T11:15:52.184Z,55.01
2022-12-18T11:18:29.005Z,54.72
2022-12-18T11:21:01.679Z,53.73
2022-12-18T11:23:32.428Z,54.37
2022-12-18T11:26:08.108Z,54.44
2022-12-18T11:28:42.352Z,52.99
2022-12-18T11:31:32.517Z,52.80
2022-12-18T11:36:58.677Z,50.87
2022-12-18T11:39:37.683Z,50.92
2022-12-18T11:42:16.813Z,51.62
2022-12-18T11:44:52.833Z,50.50
2022-12-18T11:47:31.477Z,49.52
2022-12-18T11:50:05.439Z,49.54
2022-12-18T11:52:42.820Z,49.98
2022-12-18T11:55:17.310Z,50.66
2022-12-18T11:58:01.065Z,50.04
2022-12-18T12:00:31.600Z,49.78
2022-12-18T12:03:25.254Z,49.65
2022-12-18T12:06:05.845Z,50.47
2022-12-18T12:08:48.403Z,49.24
2022-12-18T12:11:29.603Z,50.26
2022-12-18T12:14:16.636Z,50.74
2022-12-18T12:16:54.737Z,50.17
2022-12-18T12:19:38.315Z,50.58
2022-12-18T12:22:16.362Z,50.04
2022-12-18T12:24:59.427Z,49.46
2022-12-18T12:27:36.940Z,50.63
2022-12-18T12:30:13.898Z,49.50
2022-12-18T12:33:13.335Z,50.32
2022-12-18T12:35:56.177Z,50.96
2022-12-18T12:38:31.408Z,51.29
2022-12-18T12:41:05.010Z,50.99
2022-12-18T12:43:46.026Z,50.96
2022-12-18T12:46:25.841Z,51.22
2022-12-18T12:48:59.604Z,51.57
2022-12-18T12:51:32.495Z,51.42
2022-12-18T12:54:05.446Z,51.29
2022-12-18T12:56:44.052Z,50.33
2022-12-18T12:59:20.408Z,51.06
2022-12-18T13:02:02.464Z,51.16
2022-12-18T13:04:41.172Z,50.48
2022-12-18T13:07:20.519Z,50.71
2022-12-18T13:10:20.912Z,50.44
2022-12-18T13:12:57.783Z,51.21
2022-12-18T13:15:36.743Z,50.40
2022-12-18T13:18:19.307Z,50.16
2022-12-18T13:20:55.261Z,50.09
2022-12-18T13:23:46.708Z,50.05
2022-12-18T13:26:37.107Z,49.90
2022-12-18T13:29:08.236Z,50.31
2022-12-18T13:32:03.034Z,49.79
2022-12-18T13:34:36.751Z,51.05
2022-12-18T13:37:44.902Z,50.81
2022-12-18T13:40:56.883Z,50.88
2022-12-18T13:43:32.547Z,51.07
2022-12-18T13:46:28.155Z,50.78
2022-12-18T13:49:04.176Z,51.06
2022-12-18T13:51:39.180Z,51.64
2022-12-18T13:54:22.342Z,51.16
2022-12-18T13:56:53.577Z,51.29
2022-12-18T13:59:25.689Z,51.41
2022-12-18T14:01:59.119Z,51.65
2022-12-18T14:04:31.690Z,51.48
2022-12-18T14:07:08.800Z,51.58
2022-12-18T14:09:47.260Z,50.43
2022-12-18T14:12:33.656Z,50.41
2022-12-18T14:15:04.602Z,50.38
2022-12-18T14:17:36.375Z,50.47
2022-12-18T14:20:08.045Z,50.35
2022-12-18T14:22:41.131Z,50.59
2022-12-18T14:25:23.396Z,49.93
2022-12-18T14:27:56.547Z,50.13
2022-12-18T14:30:31.629Z,49.46
2022-12-18T14:33:09.790Z,49.75
2022-12-18T14:35:42.629Z,49.27
2022-12-18T14:38:26.372Z,48.68
2022-12-18T14:41:01.135Z,49.01
2022-12-18T14:43:33.415Z,49.38
2022-12-18T14:46:05.190Z,49.43
2022-12-18T14:48:43.731Z,48.76
2022-12-18T14:51:21.867Z,48.72
2022-12-18T14:53:59.330Z,48.56
2022-12-18T14:56:31.814Z,49.14
2022-12-18T14:59:04.628Z,48.84
2022-12-18T15:01:39.239Z,49.24
2022-12-18T15:04:29.298Z,49.01
2022-12-18T15:07:14.196Z,49.54
2022-12-18T15:09:48.177Z,49.32
2022-12-18T15:12:32.538Z,48.76
2022-12-18T15:15:03.188Z,48.83
2022-12-18T15:17:35.300Z,48.80
2022-12-18T15:20:13.992Z,48.66
2022-12-18T15:22:44.475Z,48.98
2022-12-18T15:25:37.749Z,48.58
2022-12-18T15:28:20.047Z,48.72
2022-12-18T15:31:06.815Z,48.45
2022-12-18T15:33:39.966Z,49.07
2022-12-18T15:36:14.137Z,49.03
2022-12-18T15:38:45.122Z,49.04
2022-12-18T15:41:24.318Z,49.45
2022-12-18T15:43:54.616Z,49.12
2022-12-18T15:46:28.109Z,48.92
2022-12-18T15:49:02.732Z,48.97
2022-12-18T15:51:37.333Z,48.84
2022-12-18T15:54:14.266Z,48.71
2022-12-18T15:56:59.697Z,48.70
2022-12-18T15:59:30.506Z,48.90
2022-12-18T16:02:01.463Z,49.23
2022-12-18T16:04:33.231Z,49.04
2022-12-18T16:07:14.759Z,49.50
2022-12-18T16:09:45.980Z,49.26
2022-12-18T16:12:24.943Z,49.03
2022-12-18T16:14:55.464Z,49.15
2022-12-18T16:17:25.900Z,49.31
2022-12-18T16:19:56.655Z,49.28
2022-12-18T16:22:29.081Z,49.40
2022-12-18T16:25:01.202Z,49.87
2022-12-18T16:27:35.946Z,48.25
2022-12-18T16:30:10.119Z,49.32
2022-12-18T16:32:40.602Z,52.32
2022-12-18T16:35:14.245Z,55.08
2022-12-18T16:37:46.521Z,56.56
2022-12-18T16:40:19.026Z,57.55
2022-12-18T16:42:52.375Z,59.41
2022-12-18T16:45:23.108Z,62.14
2022-12-18T16:47:53.613Z,63.89
2022-12-18T16:50:24.135Z,65.11
2022-12-18T16:52:54.633Z,66.40
2022-12-18T16:55:25.287Z,66.71
2022-12-18T16:57:58.377Z,67.78
2022-12-18T17:00:29.004Z,69.08
2022-12-18T17:02:59.832Z,70.17
2022-12-18T17:05:30.567Z,71.21
2022-12-18T17:08:01.612Z,72.03
2022-12-18T17:10:32.963Z,71.87
2022-12-18T17:13:06.066Z,71.10
2022-12-18T17:15:38.873Z,70.65
2022-12-18T17:18:10.118Z,70.05
2022-12-18T17:20:40.784Z,69.69
2022-12-18T17:23:11.350Z,69.75
2022-12-18T17:25:43.900Z,75.41
2022-12-18T17:28:17.145Z,72.51
2022-12-18T17:30:47.861Z,68.26
2022-12-18T17:33:18.731Z,64.74
2022-12-18T17:35:49.433Z,66.07
2022-12-18T17:38:20.457Z,67.39
2022-12-18T17:40:50.959Z,68.79
2022-12-18T17:43:24.317Z,70.40
2022-12-18T17:45:54.987Z,71.56
2022-12-18T17:48:27.124Z,71.23
2022-12-18T17:50:58.263Z,71.48
2022-12-18T17:53:30.655Z,71.78
2022-12-18T17:56:05.902Z,70.43
2022-12-18T17:58:40.956Z,68.75
2022-12-18T18:01:17.637Z,68.88
2022-12-18T18:03:49.936Z,68.18
2022-12-18T18:06:24.214Z,67.30
2022-12-18T18:08:55.141Z,66.36
2022-12-18T18:11:40.446Z,66.05
2022-12-18T18:14:17.774Z,65.03
2022-12-18T18:16:50.334Z,64.36
2022-12-18T18:19:22.972Z,63.94
2022-12-18T18:21:55.715Z,63.10
2022-12-18T18:24:27.142Z,62.69
2022-12-18T18:26:59.752Z,62.51
2022-12-18T18:29:33.558Z,62.07
2022-12-18T18:32:04.815Z,61.37
2022-12-18T18:34:36.584Z,61.13
2022-12-18T18:37:07.279Z,60.53
2022-12-18T18:39:38.046Z,60.34
2022-12-18T18:42:08.956Z,60.23
2022-12-18T18:44:45.860Z,60.10
2022-12-18T18:47:19.489Z,59.52
2022-12-18T18:49:52.217Z,59.05
2022-12-18T18:52:22.649Z,58.83
2022-12-18T18:55:12.302Z,59.07
2022-12-18T18:57:43.586Z,58.59
2022-12-18T19:00:18.639Z,58.51
2022-12-18T19:02:49.390Z,58.04
2022-12-18T19:05:22.440Z,58.05
2022-12-18T19:07:52.874Z,58.03
2022-12-18T19:10:23.531Z,58.04
2022-12-18T19:13:06.523Z,57.84
2022-12-18T19:15:40.100Z,57.91
2022-12-18T19:18:10.653Z,57.66
2022-12-18T19:20:41.641Z,57.53
2022-12-18T19:23:12.211Z,57.24
2022-12-18T19:25:43.186Z,57.02
2022-12-18T19:28:22.166Z,57.04
2022-12-18T19:31:01.981Z,57.08
2022-12-18T19:33:43.189Z,57.12
2022-12-18T19:36:17.159Z,57.03
2022-12-18T19:38:48.145Z,56.98
2022-12-18T19:41:20.068Z,57.09
2022-12-18T19:43:51.915Z,56.98
2022-12-18T19:46:26.433Z,56.92
2022-12-18T19:48:57.045Z,57.24
2022-12-18T19:51:29.918Z,57.11
2022-12-18T19:54:02.188Z,57.09
2022-12-18T19:56:34.470Z,56.92
2022-12-18T19:59:06.452Z,57.03
2022-12-18T20:01:39.763Z,56.95
2022-12-18T20:04:10.496Z,56.94
2022-12-18T20:06:50.779Z,56.94
2022-12-18T20:09:22.036Z,56.87
2022-12-18T20:11:53.433Z,56.83
2022-12-18T20:14:24.395Z,56.33
2022-12-18T20:16:58.020Z,56.92
2022-12-18T20:19:31.907Z,56.65
2022-12-18T20:22:05.055Z,56.50
2022-12-18T20:24:35.755Z,56.52
2022-12-18T20:27:09.846Z,56.36
2022-12-18T20:29:45.161Z,56.52
2022-12-18T20:32:18.547Z,56.42
2022-12-18T20:34:49.053Z,56.41
2022-12-18T20:37:20.436Z,56.52
2022-12-18T20:39:52.102Z,56.42
2022-12-18T20:42:23.795Z,56.40
2022-12-18T20:44:54.278Z,56.26
2022-12-18T20:47:27.417Z,56.68
2022-12-18T20:49:57.962Z,56.51
2022-12-18T20:52:28.613Z,56.59
2022-12-18T20:54:59.136Z,56.48
2022-12-18T20:57:31.412Z,56.39
2022-12-18T21:00:01.830Z,56.53
2022-12-18T21:02:38.818Z,56.25
2022-12-18T21:05:10.360Z,56.67
2022-12-18T21:07:40.941Z,56.72
2022-12-18T21:10:12.596Z,56.87
2022-12-18T21:12:58.711Z,56.89
2022-12-18T21:15:32.326Z,56.74
2022-12-18T21:18:05.466Z,56.77
2022-12-18T21:20:35.957Z,56.74
2022-12-18T21:23:16.571Z,56.61
2022-12-18T21:25:49.807Z,56.95
2022-12-18T21:28:26.078Z,56.96
2022-12-18T21:30:56.671Z,56.96
2022-12-18T21:33:29.904Z,56.91
2022-12-18T21:36:00.497Z,56.99
2022-12-18T21:38:31.371Z,57.17
2022-12-18T21:41:02.072Z,56.86
2022-12-18T21:43:45.041Z,56.95
2022-12-18T21:46:15.664Z,57.09
2022-12-18T21:48:49.038Z,54.61
2022-12-18T21:51:19.473Z,56.48
2022-12-18T21:53:50.062Z,58.73
2022-12-18T21:56:20.683Z,59.92
2022-12-18T21:58:56.910Z,61.15
2022-12-18T22:01:30.544Z,62.64
2022-12-18T22:04:10.645Z,65.73
2022-12-18T22:06:41.638Z,67.66
2022-12-18T22:09:13.283Z,68.17
2022-12-18T22:11:43.942Z,68.95
2022-12-18T22:14:15.161Z,71.45
2022-12-18T22:16:46.389Z,79.44
2022-12-18T22:19:20.594Z,76.09
2022-12-18T22:21:52.235Z,74.01
2022-12-18T22:24:24.571Z,72.58
2022-12-18T22:27:00.034Z,71.36
2022-12-18T22:29:45.024Z,70.54
2022-12-18T22:32:22.101Z,70.03
2022-12-18T22:35:12.674Z,69.01
2022-12-18T22:37:46.044Z,68.38
2022-12-18T22:40:24.672Z,67.70
2022-12-18T22:42:56.728Z,66.63
2022-12-18T22:45:28.089Z,66.02
2022-12-18T22:47:59.171Z,65.62
2022-12-18T22:50:33.977Z,65.49
2022-12-18T22:53:04.630Z,64.61
2022-12-18T22:55:35.139Z,64.26
2022-12-18T22:58:05.737Z,63.84
2022-12-18T23:00:36.292Z,63.83
2022-12-18T23:03:07.434Z,63.28
2022-12-18T23:05:40.650Z,63.60
2022-12-18T23:08:11.298Z,64.87
2022-12-18T23:10:41.914Z,65.16
2022-12-18T23:13:12.847Z,64.72
2022-12-18T23:15:44.982Z,65.31
2022-12-18T23:18:15.747Z,64.67
2022-12-18T23:20:48.892Z,64.51
2022-12-18T23:23:21.708Z,65.11
2022-12-18T23:25:52.518Z,65.25
2022-12-18T23:28:23.137Z,64.73
2022-12-18T23:30:53.737Z,67.90
2022-12-18T23:33:24.407Z,66.61
2022-12-18T23:36:01.471Z,65.63
2022-12-18T23:38:32.332Z,65.45
2022-12-18T23:41:03.170Z,65.77
2022-12-18T23:43:33.728Z,67.86
2022-12-18T23:46:06.075Z,68.38
2022-12-18T23:48:36.824Z,67.85
2022-12-18T23:51:11.831Z,66.86
2022-12-18T23:53:42.986Z,66.94
2022-12-18T23:56:15.105Z,68.08
2022-12-18T23:58:46.208Z,68.57
